sensor_id;sensor_type;location;lat;lon;timestamp;P1;durP1;ratioP1;P2;durP2;ratioP2
18473;SDS011;30265;52.408;13.500;2023-06-10T00:05:10;12.95;;;5.30;;
18473;SDS011;30265;52.408;13.500;2023-06-10T00:15:32;7.65;;;4.35;;
18473;SDS011;30265;52.408;13.500;2023-06-10T00:25:57;14.07;;;4.88;;
18473;SDS011;30265;52.408;13.500;2023-06-10T00:36:20;20.17;;;5.47;;
18473;SDS011;30265;52.408;13.500;2023-06-10T00:46:43;15.40;;;4.90;;
18473;SDS011;30265;52.408;13.500;2023-06-10T00:57:06;15.05;;;5.38;;
18473;SDS011;30265;52.408;13.500;2023-06-10T01:07:31;10.88;;;5.07;;
18473;SDS011;30265;52.408;13.500;2023-06-10T01:17:58;11.07;;;4.75;;
18473;SDS011;30265;52.408;13.500;2023-06-10T01:28:25;13.23;;;4.85;;
18473;SDS011;30265;52.408;13.500;2023-06-10T01:38:52;10.27;;;4.68;;
18473;SDS011;30265;52.408;13.500;2023-06-10T01:49:16;10.90;;;5.03;;
18473;SDS011;30265;52.408;13.500;2023-06-10T01:59:38;14.15;;;5.18;;
18473;SDS011;30265;52.408;13.500;2023-06-10T02:10:01;11.40;;;5.00;;
18473;SDS011;30265;52.408;13.500;2023-06-10T02:20:22;11.75;;;5.10;;
18473;SDS011;30265;52.408;13.500;2023-06-10T02:30:45;16.60;;;5.53;;
18473;SDS011;30265;52.408;13.500;2023-06-10T02:41:07;10.15;;;4.97;;
18473;SDS011;30265;52.408;13.500;2023-06-10T02:51:31;12.15;;;5.47;;
18473;SDS011;30265;52.408;13.500;2023-06-10T03:01:55;17.63;;;5.18;;
18473;SDS011;30265;52.408;13.500;2023-06-10T03:12:19;10.45;;;5.72;;
18473;SDS011;30265;52.408;13.500;2023-06-10T03:22:42;12.38;;;5.70;;
18473;SDS011;30265;52.408;13.500;2023-06-10T03:33:05;14.07;;;6.38;;
18473;SDS011;30265;52.408;13.500;2023-06-10T03:43:27;14.13;;;6.45;;
18473;SDS011;30265;52.408;13.500;2023-06-10T03:53:50;15.13;;;5.80;;
18473;SDS011;30265;52.408;13.500;2023-06-10T04:04:13;13.60;;;6.32;;
18473;SDS011;30265;52.408;13.500;2023-06-10T04:14:38;16.10;;;6.32;;
18473;SDS011;30265;52.408;13.500;2023-06-10T04:25:03;13.02;;;5.85;;
18473;SDS011;30265;52.408;13.500;2023-06-10T04:35:28;11.77;;;6.13;;
18473;SDS011;30265;52.408;13.500;2023-06-10T04:45:53;13.75;;;6.38;;
18473;SDS011;30265;52.408;13.500;2023-06-10T04:56:17;13.18;;;5.03;;
18473;SDS011;30265;52.408;13.500;2023-06-10T05:06:39;13.13;;;6.68;;
18473;SDS011;30265;52.408;13.500;2023-06-10T05:17:02;13.48;;;5.82;;
18473;SDS011;30265;52.408;13.500;2023-06-10T05:27:25;13.00;;;6.10;;
18473;SDS011;30265;52.408;13.500;2023-06-10T05:37:48;11.00;;;6.13;;
18473;SDS011;30265;52.408;13.500;2023-06-10T05:48:10;12.30;;;6.35;;
18473;SDS011;30265;52.408;13.500;2023-06-10T05:58:33;14.18;;;6.45;;
18473;SDS011;30265;52.408;13.500;2023-06-10T06:08:55;12.63;;;6.30;;
18473;SDS011;30265;52.408;13.500;2023-06-10T06:19:18;12.48;;;6.95;;
18473;SDS011;30265;52.408;13.500;2023-06-10T06:29:39;10.40;;;6.73;;
18473;SDS011;30265;52.408;13.500;2023-06-10T06:40:03;13.77;;;7.40;;
18473;SDS011;30265;52.408;13.500;2023-06-10T07:00:48;16.45;;;7.93;;
18473;SDS011;30265;52.408;13.500;2023-06-10T07:11:10;13.38;;;7.53;;
18473;SDS011;30265;52.408;13.500;2023-06-10T07:21:33;17.98;;;8.70;;
18473;SDS011;30265;52.408;13.500;2023-06-10T07:31:58;15.40;;;8.40;;
18473;SDS011;30265;52.408;13.500;2023-06-10T07:42:21;16.00;;;7.95;;
18473;SDS011;30265;52.408;13.500;2023-06-10T08:03:05;17.80;;;9.40;;
18473;SDS011;30265;52.408;13.500;2023-06-10T08:13:28;16.67;;;8.55;;
18473;SDS011;30265;52.408;13.500;2023-06-10T08:23:53;17.73;;;8.20;;
18473;SDS011;30265;52.408;13.500;2023-06-10T08:34:15;17.85;;;8.52;;
18473;SDS011;30265;52.408;13.500;2023-06-10T08:44:38;17.02;;;8.48;;
18473;SDS011;30265;52.408;13.500;2023-06-10T08:55:03;49.72;;;10.32;;
18473;SDS011;30265;52.408;13.500;2023-06-10T09:16:17;13.02;;;7.80;;
18473;SDS011;30265;52.408;13.500;2023-06-10T09:26:56;14.55;;;8.45;;
18473;SDS011;30265;52.408;13.500;2023-06-10T09:47:55;13.95;;;8.52;;
18473;SDS011;30265;52.408;13.500;2023-06-10T09:58:18;14.20;;;9.32;;
18473;SDS011;30265;52.408;13.500;2023-06-10T10:08:46;13.45;;;8.73;;
18473;SDS011;30265;52.408;13.500;2023-06-10T10:19:11;11.20;;;8.13;;
18473;SDS011;30265;52.408;13.500;2023-06-10T10:29:41;14.65;;;7.22;;
18473;SDS011;30265;52.408;13.500;2023-06-10T10:40:07;15.30;;;8.38;;
18473;SDS011;30265;52.408;13.500;2023-06-10T10:50:32;10.65;;;7.30;;
18473;SDS011;30265;52.408;13.500;2023-06-10T11:00:54;10.63;;;6.55;;
18473;SDS011;30265;52.408;13.500;2023-06-10T11:11:22;10.25;;;6.35;;
18473;SDS011;30265;52.408;13.500;2023-06-10T11:21:58;11.75;;;6.05;;
18473;SDS011;30265;52.408;13.500;2023-06-10T11:42:51;13.65;;;6.20;;
18473;SDS011;30265;52.408;13.500;2023-06-10T11:53:14;13.73;;;7.30;;
18473;SDS011;30265;52.408;13.500;2023-06-10T12:03:36;8.05;;;5.68;;
18473;SDS011;30265;52.408;13.500;2023-06-10T12:14:00;11.73;;;6.85;;
18473;SDS011;30265;52.408;13.500;2023-06-10T12:24:23;9.38;;;6.47;;
18473;SDS011;30265;52.408;13.500;2023-06-10T12:34:46;10.85;;;7.22;;
18473;SDS011;30265;52.408;13.500;2023-06-10T12:45:14;13.88;;;7.68;;
18473;SDS011;30265;52.408;13.500;2023-06-10T12:55:37;12.30;;;7.50;;
18473;SDS011;30265;52.408;13.500;2023-06-10T13:05:59;16.10;;;7.72;;
18473;SDS011;30265;52.408;13.500;2023-06-10T13:16:23;11.90;;;6.32;;
18473;SDS011;30265;52.408;13.500;2023-06-10T13:26:46;9.73;;;5.13;;
18473;SDS011;30265;52.408;13.500;2023-06-10T13:37:09;8.18;;;5.40;;
18473;SDS011;30265;52.408;13.500;2023-06-10T13:47:32;9.20;;;6.22;;
18473;SDS011;30265;52.408;13.500;2023-06-10T13:57:57;17.35;;;6.43;;
18473;SDS011;30265;52.408;13.500;2023-06-10T14:08:19;9.85;;;6.32;;
18473;SDS011;30265;52.408;13.500;2023-06-10T14:18:42;12.50;;;5.75;;
18473;SDS011;30265;52.408;13.500;2023-06-10T14:29:04;10.85;;;6.50;;
18473;SDS011;30265;52.408;13.500;2023-06-10T14:39:28;10.40;;;6.50;;
18473;SDS011;30265;52.408;13.500;2023-06-10T14:49:51;9.73;;;5.80;;
18473;SDS011;30265;52.408;13.500;2023-06-10T15:00:14;11.63;;;6.75;;
18473;SDS011;30265;52.408;13.500;2023-06-10T15:10:39;11.15;;;6.82;;
18473;SDS011;30265;52.408;13.500;2023-06-10T15:21:03;14.43;;;6.80;;
18473;SDS011;30265;52.408;13.500;2023-06-10T15:31:24;15.25;;;8.23;;
18473;SDS011;30265;52.408;13.500;2023-06-10T15:41:47;13.45;;;5.93;;
18473;SDS011;30265;52.408;13.500;2023-06-10T15:52:09;13.07;;;5.78;;
18473;SDS011;30265;52.408;13.500;2023-06-10T16:02:32;10.07;;;5.72;;
18473;SDS011;30265;52.408;13.500;2023-06-10T16:12:56;8.48;;;5.05;;
18473;SDS011;30265;52.408;13.500;2023-06-10T16:23:19;9.60;;;5.28;;
18473;SDS011;30265;52.408;13.500;2023-06-10T16:33:41;17.02;;;5.72;;
18473;SDS011;30265;52.408;13.500;2023-06-10T16:44:05;8.40;;;5.22;;
18473;SDS011;30265;52.408;13.500;2023-06-10T16:54:27;7.47;;;5.55;;
18473;SDS011;30265;52.408;13.500;2023-06-10T17:04:50;9.23;;;4.97;;
18473;SDS011;30265;52.408;13.500;2023-06-10T17:15:12;9.32;;;5.70;;
18473;SDS011;30265;52.408;13.500;2023-06-10T17:25:35;8.93;;;5.35;;
18473;SDS011;30265;52.408;13.500;2023-06-10T17:35:57;10.90;;;5.50;;
18473;SDS011;30265;52.408;13.500;2023-06-10T17:46:20;9.15;;;5.00;;
18473;SDS011;30265;52.408;13.500;2023-06-10T17:56:41;7.80;;;4.57;;
18473;SDS011;30265;52.408;13.500;2023-06-10T18:07:05;8.02;;;5.07;;
18473;SDS011;30265;52.408;13.500;2023-06-10T18:17:27;8.18;;;4.65;;
18473;SDS011;30265;52.408;13.500;2023-06-10T18:27:50;10.30;;;5.10;;
18473;SDS011;30265;52.408;13.500;2023-06-10T18:38:11;13.07;;;5.28;;
18473;SDS011;30265;52.408;13.500;2023-06-10T18:48:34;7.37;;;5.00;;
18473;SDS011;30265;52.408;13.500;2023-06-10T18:58:56;10.75;;;5.70;;
18473;SDS011;30265;52.408;13.500;2023-06-10T19:09:19;11.82;;;5.47;;
18473;SDS011;30265;52.408;13.500;2023-06-10T19:19:41;10.70;;;5.70;;
18473;SDS011;30265;52.408;13.500;2023-06-10T19:30:05;10.35;;;6.13;;
18473;SDS011;30265;52.408;13.500;2023-06-10T19:40:28;11.85;;;7.32;;
18473;SDS011;30265;52.408;13.500;2023-06-10T19:50:51;11.73;;;7.00;;
18473;SDS011;30265;52.408;13.500;2023-06-10T20:01:13;15.63;;;7.57;;
18473;SDS011;30265;52.408;13.500;2023-06-10T20:11:36;11.05;;;6.10;;
18473;SDS011;30265;52.408;13.500;2023-06-10T20:21:59;12.05;;;6.50;;
18473;SDS011;30265;52.408;13.500;2023-06-10T20:32:26;10.00;;;5.97;;
18473;SDS011;30265;52.408;13.500;2023-06-10T20:42:47;13.30;;;6.05;;
18473;SDS011;30265;52.408;13.500;2023-06-10T20:53:11;10.85;;;6.55;;
18473;SDS011;30265;52.408;13.500;2023-06-10T21:03:32;8.50;;;5.75;;
18473;SDS011;30265;52.408;13.500;2023-06-10T21:13:55;10.23;;;5.43;;
18473;SDS011;30265;52.408;13.500;2023-06-10T21:24:17;10.38;;;4.82;;
18473;SDS011;30265;52.408;13.500;2023-06-10T21:34:40;6.00;;;4.03;;
18473;SDS011;30265;52.408;13.500;2023-06-10T21:45:02;7.80;;;4.20;;
18473;SDS011;30265;52.408;13.500;2023-06-10T21:55:26;9.88;;;4.70;;
18473;SDS011;30265;52.408;13.500;2023-06-10T22:05:47;10.45;;;4.40;;
18473;SDS011;30265;52.408;13.500;2023-06-10T22:16:11;9.38;;;4.60;;
18473;SDS011;30265;52.408;13.500;2023-06-10T22:26:33;8.30;;;4.67;;
18473;SDS011;30265;52.408;13.500;2023-06-10T22:37:13;9.15;;;4.47;;
18473;SDS011;30265;52.408;13.500;2023-06-10T22:47:36;8.75;;;4.63;;
18473;SDS011;30265;52.408;13.500;2023-06-10T22:57:59;12.57;;;4.72;;
18473;SDS011;30265;52.408;13.500;2023-06-10T23:08:21;8.00;;;4.47;;
18473;SDS011;30265;52.408;13.500;2023-06-10T23:18:45;8.55;;;4.03;;
18473;SDS011;30265;52.408;13.500;2023-06-10T23:29:07;7.35;;;3.60;;
18473;SDS011;30265;52.408;13.500;2023-06-10T23:39:30;11.57;;;3.47;;
18473;SDS011;30265;52.408;13.500;2023-06-10T23:49:52;6.68;;;3.50;;
